Time;durP1;ratioP1;P1;durP2;ratioP2;P2;SDS_P1;SDS_P2;PMS_P1;PMS_P2;Temp;Humidity;BMP_temperature;BMP_pressure;BME280_temperature;BME280_humidity;BME280_pressure;Samples;Min_cycle;Max_cycle;Signal;HPM_P1;HPM_P2
2024/04/17 00:02:06;;;;;;;1.65;1.20;;;;;;;7.99;62.11;99135.94;11327728;26;19998;-59
2024/04/17 00:07:08;;;;;;;3.47;1.38;;;;;;;8.02;61.96;99133.13;11326951;26;20017;-60
2024/04/17 00:12:11;;;;;;;2.50;1.23;;;;;;;8.00;61.52;99137.59;11327496;26;21143;-60
2024/04/17 00:17:13;;;;;;;3.22;1.30;;;;;;;7.98;61.96;99144.66;11313247;26;19998;-60
2024/04/17 00:22:16;;;;;;;1.77;1.20;;;;;;;7.91;61.91;99139.94;11328299;26;20002;-60
2024/04/17 00:27:19;;;;;;;3.90;1.40;;;;;;;7.96;61.82;99137.88;11327228;26;19998;-59
2024/04/17 00:32:22;;;;;;;3.03;1.65;;;;;;;7.88;61.71;99143.56;11325314;26;20006;-59
2024/04/17 00:37:24;;;;;;;2.70;1.85;;;;;;;7.88;61.98;99142.72;11325673;26;20341;-60
2024/04/17 00:42:27;;;;;;;2.95;1.77;;;;;;;7.82;61.81;99143.09;11326636;26;20084;-60
2024/04/17 00:47:29;;;;;;;3.97;2.05;;;;;;;7.76;62.04;99146.91;11324563;26;19998;-60
2024/04/17 00:52:33;;;;;;;3.10;1.80;;;;;;;7.82;62.22;99149.13;11326684;26;20002;-60
2024/04/17 00:57:38;;;;;;;4.72;2.50;;;;;;;7.77;62.24;99145.97;11326558;26;21063;-59
2024/04/17 01:02:40;;;;;;;3.70;2.10;;;;;;;7.73;62.22;99141.88;11324219;26;20059;-60
2024/04/17 01:07:43;;;;;;;4.28;2.35;;;;;;;7.80;62.30;99155.34;11325784;26;20010;-60
2024/04/17 01:12:46;;;;;;;3.92;2.25;;;;;;;7.77;62.03;99151.16;11324653;26;20074;-59
2024/04/17 01:17:48;;;;;;;6.45;2.17;;;;;;;7.76;62.41;99151.28;11320845;26;21447;-59
2024/04/17 01:22:51;;;;;;;3.58;2.13;;;;;;;7.75;62.25;99153.03;11326043;26;20020;-59
2024/04/17 01:27:54;;;;;;;3.55;1.83;;;;;;;7.77;62.30;99153.78;11323389;26;20026;-59
2024/04/17 01:32:57;;;;;;;2.90;1.95;;;;;;;7.81;61.83;99152.66;11294350;26;20017;-59
2024/04/17 01:37:59;;;;;;;3.40;2.03;;;;;;;7.80;62.05;99153.59;11324552;26;20009;-59
2024/04/17 01:43:02;;;;;;;3.72;1.98;;;;;;;7.80;62.12;99155.34;11322444;26;19998;-59
2024/04/17 01:48:05;;;;;;;3.85;1.70;;;;;;;7.86;61.73;99157.59;11322461;26;19998;-59
2024/04/17 01:53:08;;;;;;;3.55;2.10;;;;;;;7.89;61.70;99168.69;11324772;26;20090;-59
2024/04/17 01:58:12;;;;;;;3.15;1.80;;;;;;;7.82;61.65;99162.16;11292815;26;20013;-59
2024/04/17 02:03:15;;;;;;;3.75;2.00;;;;;;;7.67;61.53;99160.47;11324250;26;20017;-59
2024/04/17 02:08:17;;;;;;;5.45;2.15;;;;;;;7.67;61.82;99160.47;11324832;26;20012;-59
2024/04/17 02:13:20;;;;;;;3.65;2.03;;;;;;;7.72;61.64;99173.22;11321629;26;19998;-60
2024/04/17 02:18:22;;;;;;;3.67;1.77;;;;;;;7.59;61.32;99173.09;11321147;26;20006;-60
2024/04/17 02:23:28;;;;;;;3.85;1.98;;;;;;;7.59;61.42;99175.69;11292637;26;20017;-61
2024/04/17 02:28:31;;;;;;;4.63;2.22;;;;;;;7.68;61.65;99187.34;11327884;26;20002;-60
2024/04/17 02:33:34;;;;;;;3.00;1.50;;;;;;;7.73;61.92;99186.13;11331053;26;20337;-60
2024/04/17 02:38:36;;;;;;;3.35;1.45;;;;;;;7.66;61.58;99184.81;11329111;26;20002;-60
2024/04/17 02:43:39;;;;;;;3.72;1.70;;;;;;;7.58;61.68;99186.19;11328321;26;19994;-60
2024/04/17 02:48:42;;;;;;;2.90;1.75;;;;;;;7.64;61.40;99185.84;11330729;26;19994;-59
2024/04/17 02:53:44;;;;;;;3.00;1.63;;;;;;;7.55;61.55;99189.81;11330600;26;20018;-60
2024/04/17 02:58:47;;;;;;;2.55;1.60;;;;;;;7.54;61.64;99193.38;11326094;26;19994;-59
2024/04/17 03:03:49;;;;;;;2.22;1.60;;;;;;;7.45;61.71;99195.69;11330393;26;20002;-60
2024/04/17 03:08:52;;;;;;;3.50;2.13;;;;;;;7.43;61.99;99193.13;11327869;26;20446;-60
2024/04/17 03:13:55;;;;;;;5.47;1.83;;;;;;;7.44;62.00;99194.84;11330157;26;20017;-60
2024/04/17 03:18:57;;;;;;;3.85;1.63;;;;;;;7.39;61.87;99212.47;11327735;26;20073;-60
2024/04/17 03:24:00;;;;;;;6.03;2.00;;;;;;;7.41;61.76;99213.22;11330104;26;20107;-60
2024/04/17 03:29:02;;;;;;;3.80;2.08;;;;;;;7.41;61.64;99217.56;11329771;26;20017;-60
2024/04/17 03:34:05;;;;;;;3.85;1.95;;;;;;;7.33;61.67;99223.22;11296912;26;20033;-60
2024/04/17 03:39:08;;;;;;;3.80;1.90;;;;;;;7.30;61.69;99230.38;11387945;25;20006;-60
2024/04/17 03:44:10;;;;;;;3.20;1.80;;;;;;;7.19;61.67;99239.63;11328424;26;20002;-60
2024/04/17 03:49:13;;;;;;;4.03;1.75;;;;;;;7.30;61.45;99241.63;11296342;26;20012;-60
2024/04/17 03:54:16;;;;;;;3.58;2.20;;;;;;;7.37;61.35;99234.28;11296684;26;20529;-60
2024/04/17 03:59:19;;;;;;;2.90;1.83;;;;;;;7.42;61.13;99238.31;11328408;26;20002;-60
2024/04/17 04:04:22;;;;;;;3.83;2.10;;;;;;;7.25;61.74;99233.22;11328693;26;20570;-60
2024/04/17 04:09:25;;;;;;;3.78;2.10;;;;;;;7.07;61.58;99245.53;11328620;26;20009;-61
2024/04/17 04:14:27;;;;;;;7.97;2.67;;;;;;;7.02;62.12;99246.72;11284079;26;20005;-60
2024/04/17 04:19:30;;;;;;;10.82;3.00;;;;;;;7.00;61.82;99251.13;11327239;26;20660;-60
2024/04/17 04:24:32;;;;;;;3.63;2.13;;;;;;;6.89;61.91;99249.16;11328519;26;20014;-60
2024/04/17 04:29:35;;;;;;;5.30;2.33;;;;;;;6.86;61.92;99258.84;11325453;26;19998;-60
2024/04/17 04:34:37;;;;;;;5.00;2.20;;;;;;;6.84;61.45;99258.09;11326938;26;20038;-60
2024/04/17 04:39:40;;;;;;;3.85;2.05;;;;;;;6.71;61.83;99273.56;11325919;26;20484;-60
2024/04/17 04:44:43;;;;;;;6.40;3.88;;;;;;;6.67;61.65;99271.19;11324730;26;20326;-60
2024/04/17 04:49:45;;;;;;;6.18;3.40;;;;;;;6.69;61.55;99277.16;11327579;26;20339;-60
2024/04/17 04:54:49;;;;;;;9.25;4.32;;;;;;;6.76;61.46;99289.72;11326861;26;20017;-60
2024/04/17 04:59:52;;;;;;;7.65;4.45;;;;;;;6.81;61.10;99290.31;11325619;26;20050;-60
2024/04/17 05:04:54;;;;;;;7.55;3.03;;;;;;;6.85;61.13;99293.59;11323571;26;20020;-60
2024/04/17 05:09:57;;;;;;;2.92;1.80;;;;;;;6.84;61.33;99295.34;11326176;26;20021;-60
2024/04/17 05:15:00;;;;;;;7.43;2.30;;;;;;;6.92;60.91;99298.34;11324394;26;20342;-60
2024/04/17 05:20:02;;;;;;;3.72;1.77;;;;;;;7.08;60.75;99301.78;11325461;26;20006;-60
2024/04/17 05:25:05;;;;;;;5.15;1.95;;;;;;;7.06;60.42;99306.22;11325820;26;19998;-60
2024/04/17 05:30:11;;;;;;;4.72;1.90;;;;;;;7.19;60.24;99314.19;11326119;26;20013;-60
2024/04/17 05:35:14;;;;;;;6.07;2.40;;;;;;;7.30;60.15;99306.66;11326516;26;20458;-60
2024/04/17 05:40:17;;;;;;;11.65;3.65;;;;;;;7.75;59.15;99308.38;11323793;26;19998;-60
2024/04/17 05:45:19;;;;;;;5.10;1.75;;;;;;;8.12;58.74;99314.91;11323389;26;19998;-60
2024/04/17 05:50:22;;;;;;;8.27;1.92;;;;;;;8.25;57.61;99315.84;11324576;26;20016;-61
2024/04/17 05:55:25;;;;;;;3.22;1.63;;;;;;;8.24;57.62;99317.59;11323972;26;19999;-60
2024/04/17 06:00:28;;;;;;;4.07;2.22;;;;;;;8.39;57.64;99326.25;11325945;26;20006;-60
2024/04/17 06:05:31;;;;;;;4.15;1.83;;;;;;;8.40;56.91;99335.75;11329298;26;20013;-61
2024/04/17 06:10:34;;;;;;;7.63;2.30;;;;;;;8.45;56.96;99341.53;11329759;26;20022;-60
2024/04/17 06:15:36;;;;;;;4.97;2.00;;;;;;;8.34;56.74;99343.94;11331824;26;20012;-60
2024/04/17 06:20:41;;;;;;;5.55;1.85;;;;;;;8.20;56.74;99349.16;11329814;26;20403;-59
2024/04/17 06:25:45;;;;;;;7.10;1.90;;;;;;;8.15;56.60;99356.38;11299691;26;19998;-59
2024/04/17 06:30:47;;;;;;;4.95;2.00;;;;;;;8.17;56.22;99362.34;11331586;26;20342;-59
2024/04/17 06:35:50;;;;;;;7.80;2.83;;;;;;;8.24;56.16;99358.47;11330005;26;20009;-60
2024/04/17 06:40:56;;;;;;;3.05;1.65;;;;;;;8.50;55.93;99361.19;11329278;26;20025;-59
2024/04/17 06:45:59;;;;;;;5.13;1.92;;;;;;;9.07;55.54;99354.16;11322715;26;20013;-59
2024/04/17 06:51:01;;;;;;;6.82;2.30;;;;;;;9.34;54.91;99357.63;11329710;26;20047;-59
2024/04/17 06:56:04;;;;;;;4.07;2.35;;;;;;;9.18;54.56;99363.94;11329054;26;20050;-59
2024/04/17 07:01:06;;;;;;;3.53;2.03;;;;;;;9.18;54.45;99362.13;11329241;26;20825;-59
2024/04/17 07:06:09;;;;;;;3.33;1.60;;;;;;;9.10;54.41;99363.53;11326516;26;20653;-59
2024/04/17 07:11:12;;;;;;;3.50;1.70;;;;;;;8.98;53.68;99365.16;11327239;26;20439;-59
2024/04/17 07:16:14;;;;;;;4.72;1.90;;;;;;;9.20;53.74;99370.69;11327930;26;20499;-59
2024/04/17 07:21:17;;;;;;;5.07;1.60;;;;;;;9.32;53.12;99367.31;11326732;26;20006;-60
2024/04/17 07:26:20;;;;;;;2.80;1.60;;;;;;;9.39;53.26;99366.00;11319240;26;19998;-60
2024/04/17 07:31:22;;;;;;;3.65;1.88;;;;;;;9.79;52.48;99366.09;11322553;26;20042;-60
2024/04/17 07:36:25;;;;;;;4.47;1.70;;;;;;;10.06;52.38;99364.25;11322150;26;20042;-60
2024/04/17 07:41:28;;;;;;;3.47;1.70;;;;;;;10.02;51.51;99365.38;11323040;26;20130;-60
2024/04/17 07:46:31;;;;;;;3.90;1.83;;;;;;;10.04;50.30;99366.97;11316138;26;20355;-60
2024/04/17 07:51:34;;;;;;;3.78;1.73;;;;;;;10.61;50.06;99356.13;11321743;26;20005;-61
2024/04/17 07:56:37;;;;;;;2.83;1.50;;;;;;;11.49;48.59;99350.69;11321537;26;20069;-60
2024/04/17 08:01:39;;;;;;;3.90;1.90;;;;;;;12.46;47.34;99344.25;11321324;26;20107;-60
2024/04/17 08:06:42;;;;;;;3.42;1.70;;;;;;;13.11;46.73;99339.13;11321389;26;20471;-60
2024/04/17 08:11:45;;;;;;;4.15;1.98;;;;;;;13.24;45.73;99342.44;11315466;26;20014;-60
2024/04/17 08:16:50;;;;;;;4.05;1.60;;;;;;;12.39;45.95;99348.31;11320039;26;20104;-61
2024/04/17 08:21:53;;;;;;;4.97;2.15;;;;;;;12.42;44.66;99351.53;11319637;26;19994;-60
2024/04/17 08:26:56;;;;;;;3.00;1.25;;;;;;;11.90;45.43;99354.59;11288356;26;19998;-60
2024/04/17 08:31:59;;;;;;;4.47;1.40;;;;;;;12.86;43.80;99350.72;11320590;26;19998;-60
2024/04/17 08:37:02;;;;;;;4.03;1.60;;;;;;;14.10;41.49;99337.97;11314187;26;20458;-61
2024/04/17 08:42:06;;;;;;;3.78;1.50;;;;;;;13.06;41.77;99343.91;11314651;26;20073;-60
2024/04/17 08:47:10;;;;;;;3.70;1.80;;;;;;;11.99;42.68;99366.16;11319583;26;20355;-60
2024/04/17 08:52:13;;;;;;;2.92;1.20;;;;;;;11.65;43.15;99362.56;11321353;26;20014;-60
2024/04/17 08:57:18;;;;;;;4.50;1.58;;;;;;;12.64;42.07;99362.03;11318080;26;20002;-60
2024/04/17 09:02:23;;;;;;;3.33;1.80;;;;;;;13.30;40.18;99357.69;11319124;26;20081;-60
2024/04/17 09:07:28;;;;;;;5.47;1.77;;;;;;;13.56;40.47;99361.72;11318378;26;20446;-59
2024/04/17 09:12:31;;;;;;;5.45;2.67;;;;;;;12.88;41.41;99362.75;11317579;26;20010;-60
2024/04/17 09:17:33;;;;;;;3.10;1.73;;;;;;;12.35;42.06;99375.72;11312483;26;19998;-60
2024/04/17 09:22:36;;;;;;;3.53;1.92;;;;;;;12.29;42.47;99369.16;11318298;26;20017;-60
2024/04/17 09:27:39;;;;;;;3.50;1.70;;;;;;;13.25;40.92;99360.69;11317125;26;20017;-60
2024/04/17 09:32:43;;;;;;;3.58;1.75;;;;;;;13.98;38.36;99360.88;11319371;26;20717;-60
2024/04/17 09:37:50;;;;;;;7.32;2.05;;;;;;;14.31;37.76;99362.44;11310430;26;20013;-60
2024/04/17 09:42:57;;;;;;;4.72;1.83;;;;;;;13.72;38.88;99349.00;11306118;26;20002;-60
2024/04/17 09:48:13;;;;;;;4.18;1.85;;;;;;;13.41;39.04;99348.00;11286506;26;20010;-60
2024/04/17 09:53:21;;;;;;;3.40;1.73;;;;;;;12.84;40.40;99352.63;11313266;26;19998;-60
2024/04/17 09:58:40;;;;;;;4.43;2.10;;;;;;;12.09;40.40;99346.16;11314789;26;20009;-60
2024/04/17 10:03:59;;;;;;;5.75;2.10;;;;;;;11.83;41.24;99355.13;11313684;26;20048;-60
2024/04/17 10:09:03;;;;;;;4.05;2.22;;;;;;;11.75;41.71;99349.63;11280721;26;20065;-60
2024/04/17 10:14:12;;;;;;;4.07;2.10;;;;;;;11.66;42.25;99356.38;11310873;26;20044;-60
2024/04/17 10:19:17;;;;;;;4.05;2.15;;;;;;;11.34;43.08;99363.13;11307030;26;20012;-60
2024/04/17 10:24:20;;;;;;;3.47;2.17;;;;;;;11.50;43.44;99362.88;11315318;26;19999;-60
2024/04/17 10:29:28;;;;;;;3.45;1.95;;;;;;;12.06;42.80;99359.53;11309559;26;20339;-60
2024/04/17 10:34:42;;;;;;;4.45;1.58;;;;;;;12.46;41.97;99357.34;11314801;26;20003;-60
2024/04/17 10:39:46;;;;;;;4.55;2.00;;;;;;;12.24;43.29;99357.28;11316107;26;20002;-60
2024/04/17 10:44:50;;;;;;;2.65;1.40;;;;;;;11.02;46.22;99382.84;11314711;26;20082;-60
2024/04/17 10:50:01;;;;;;;2.50;1.52;;;;;;;9.94;49.51;99399.00;11319164;26;20005;-59
2024/04/17 10:55:07;;;;;;;1.80;1.02;;;;;;;9.02;50.23;99404.91;11323852;26;19998;-60
2024/04/17 11:00:10;;;;;;;3.13;1.23;;;;;;;8.88;51.35;99397.94;11321985;26;19994;-60
2024/04/17 11:05:13;;;;;;;1.65;1.00;;;;;;;8.98;51.42;99403.44;11318187;26;20006;-59
2024/04/17 11:10:16;;;;;;;1.15;0.90;;;;;;;9.09;52.71;99401.00;11318616;26;20429;-60
2024/04/17 11:15:19;;;;;;;1.67;1.20;;;;;;;9.40;52.47;99393.75;11318274;26;20026;-60
2024/04/17 11:20:22;;;;;;;2.65;1.50;;;;;;;9.54;53.20;99393.72;11318090;26;20492;-61
2024/04/17 11:25:24;;;;;;;3.15;1.33;;;;;;;9.93;52.66;99382.50;11315839;26;19998;-60
2024/04/17 11:30:27;;;;;;;1.80;1.17;;;;;;;10.52;52.21;99378.53;11320985;26;20006;-61
2024/04/17 11:35:30;;;;;;;2.10;1.10;;;;;;;11.18;51.91;99367.78;11319540;26;20002;-60
2024/04/17 11:40:33;;;;;;;2.05;1.30;;;;;;;11.61;51.48;99370.75;11316162;26;20009;-60
2024/04/17 11:45:36;;;;;;;1.05;0.90;;;;;;;10.99;51.81;99356.91;11309535;26;20022;-61
2024/04/17 11:50:39;;;;;;;1.33;1.10;;;;;;;10.80;53.06;99365.22;11318014;26;19998;-61
2024/04/17 11:55:41;;;;;;;1.00;0.90;;;;;;;10.72;52.80;99366.69;11318467;26;20008;-61
2024/04/17 12:00:44;;;;;;;3.00;1.55;;;;;;;10.59;52.93;99347.53;11318490;26;20006;-60
2024/04/17 12:05:48;;;;;;;1.45;1.20;;;;;;;10.52;53.30;99353.19;11288188;26;20032;-61
2024/04/17 12:10:55;;;;;;;2.15;1.50;;;;;;;11.40;52.28;99346.97;11319900;26;20068;-61
2024/04/17 12:15:57;;;;;;;2.25;1.20;;;;;;;12.05;52.40;99339.50;11322465;26;20454;-61
2024/04/17 12:21:00;;;;;;;1.98;1.40;;;;;;;11.79;51.84;99340.59;11320239;26;20014;-61
2024/04/17 12:31:26;;;;;;;1.83;1.05;;;;;;;10.71;53.19;99342.31;11317812;26;20017;-61
2024/04/17 12:36:30;;;;;;;1.85;0.98;;;;;;;10.38;53.24;99342.00;11322145;26;21075;-60
2024/04/17 12:41:34;;;;;;;2.33;1.15;;;;;;;10.61;53.55;99341.28;11322707;26;20024;-60
2024/04/17 12:46:37;;;;;;;2.00;1.42;;;;;;;11.48;52.01;99330.72;11326039;26;20002;-61
2024/04/17 12:51:39;;;;;;;1.73;1.30;;;;;;;11.77;50.97;99329.41;11326855;26;20090;-61
2024/04/17 12:56:42;;;;;;;1.77;1.20;;;;;;;12.14;49.76;99323.94;11324370;26;19994;-60
2024/04/17 13:01:44;;;;;;;2.72;1.40;;;;;;;11.48;50.10;99320.25;11320430;26;19994;-60
2024/04/17 13:06:48;;;;;;;1.75;1.20;;;;;;;11.50;50.08;99313.13;11320548;26;20010;-60
2024/04/17 13:11:51;;;;;;;1.48;1.13;;;;;;;11.38;50.12;99314.81;11316271;26;20045;-60
2024/04/17 13:16:54;;;;;;;1.50;1.05;;;;;;;11.07;50.46;99310.97;11282812;26;20362;-60
2024/04/17 13:21:59;;;;;;;4.18;1.08;;;;;;;10.94;49.69;99312.75;11319054;26;19998;-60
2024/04/17 13:27:02;;;;;;;1.98;1.23;;;;;;;11.05;49.95;99302.38;11319505;26;20001;-61
2024/04/17 13:32:04;;;;;;;2.17;1.35;;;;;;;11.65;49.74;99299.72;11317321;26;19994;-61
2024/04/17 13:37:07;;;;;;;3.92;1.20;;;;;;;12.25;47.50;99288.19;11287674;26;21514;-61
2024/04/17 13:42:10;;;;;;;1.40;1.10;;;;;;;12.68;45.90;99289.19;11318448;26;19995;-61
2024/04/17 13:47:12;;;;;;;1.52;1.20;;;;;;;12.76;45.68;99281.56;11318676;26;20338;-61
2024/04/17 13:52:15;;;;;;;1.75;1.15;;;;;;;13.09;45.59;99285.91;11317615;26;19998;-61
2024/04/17 13:57:18;;;;;;;1.95;1.35;;;;;;;12.90;45.18;99274.22;11317347;26;20699;-61
2024/04/17 14:02:20;;;;;;;1.92;1.23;;;;;;;12.39;45.21;99273.09;11315368;26;19999;-59
2024/04/17 14:07:23;;;;;;;1.67;1.10;;;;;;;12.28;45.93;99280.06;11313891;26;20009;-60
2024/04/17 14:12:26;;;;;;;3.13;1.58;;;;;;;11.92;46.03;99274.09;11318059;26;20013;-61
2024/04/17 14:17:29;;;;;;;2.72;1.40;;;;;;;12.02;46.27;99258.50;11317591;26;20006;-61
2024/04/17 14:22:31;;;;;;;3.47;1.70;;;;;;;11.92;46.19;99257.53;11318661;26;20116;-61
2024/04/17 14:27:34;;;;;;;2.17;1.40;;;;;;;11.81;45.92;99255.69;11324770;26;19998;-61
2024/04/17 14:32:37;;;;;;;2.22;1.60;;;;;;;11.99;46.22;99246.44;11350741;26;20355;-59
2024/04/17 14:37:40;;;;;;;3.35;1.42;;;;;;;12.73;45.47;99230.16;11320134;26;20006;-60
2024/04/17 14:42:43;;;;;;;2.40;1.50;;;;;;;12.44;43.98;99234.22;11323370;26;20455;-60
2024/04/17 14:47:46;;;;;;;2.10;1.33;;;;;;;12.24;44.64;99227.06;11317803;26;20021;-60
2024/04/17 14:52:48;;;;;;;1.60;1.10;;;;;;;12.28;44.42;99223.28;11321473;26;19998;-60
2024/04/17 14:57:55;;;;;;;1.85;1.13;;;;;;;12.07;44.98;99222.25;11318766;26;20009;-60
2024/04/17 15:02:58;;;;;;;2.15;1.30;;;;;;;11.70;44.45;99219.00;11321401;26;20017;-60
2024/04/17 15:08:02;;;;;;;2.70;1.30;;;;;;;11.60;45.46;99233.72;11321279;26;20035;-60
2024/04/17 15:13:05;;;;;;;1.75;1.20;;;;;;;11.32;46.60;99229.72;11319975;26;20017;-60
2024/04/17 15:18:07;;;;;;;2.15;1.10;;;;;;;11.05;47.48;99231.72;11288243;26;20580;-61
2024/04/17 15:23:10;;;;;;;2.55;1.70;;;;;;;10.84;48.88;99237.66;11320947;26;20079;-61
2024/04/17 15:28:13;;;;;;;3.75;1.30;;;;;;;10.57;48.11;99240.44;11318656;26;20013;-61
2024/04/17 15:33:16;;;;;;;2.05;1.38;;;;;;;10.54;47.82;99245.06;11313666;26;20006;-61
2024/04/17 15:38:19;;;;;;;1.67;1.00;;;;;;;10.88;47.64;99237.34;11292298;26;20507;-61
2024/04/17 15:43:30;;;;;;;3.05;1.30;;;;;;;11.68;46.53;99235.78;11319234;26;20101;-60
2024/04/17 15:48:35;;;;;;;1.45;0.90;;;;;;;12.54;45.12;99226.47;11319161;26;19999;-61
2024/04/17 15:53:39;;;;;;;3.72;1.20;;;;;;;12.58;45.59;99226.09;11319818;26;20017;-60
2024/04/17 15:58:43;;;;;;;2.25;1.20;;;;;;;12.50;44.81;99232.91;11309421;26;20348;-61
2024/04/17 16:03:50;;;;;;;1.83;1.08;;;;;;;11.46;45.50;99247.03;11317552;26;20002;-61
2024/04/17 16:08:54;;;;;;;1.60;1.00;;;;;;;11.14;46.12;99252.00;11322283;26;19994;-61
2024/04/17 16:13:57;;;;;;;3.00;1.08;;;;;;;11.30;45.81;99249.09;11289769;26;20017;-60
2024/04/17 16:18:59;;;;;;;2.88;1.00;;;;;;;11.10;45.56;99260.19;11318401;26;19998;-61
2024/04/17 16:24:05;;;;;;;1.88;1.00;;;;;;;10.88;45.16;99271.34;11318167;26;19998;-61
2024/04/17 16:29:08;;;;;;;1.90;1.00;;;;;;;10.62;46.42;99269.75;11319733;26;21561;-61
2024/04/17 16:34:11;;;;;;;2.83;1.25;;;;;;;10.42;45.85;99265.03;11319035;26;20090;-61
2024/04/17 16:39:13;;;;;;;1.50;1.02;;;;;;;10.15;46.14;99259.13;11324384;26;20026;-61
2024/04/17 16:44:16;;;;;;;1.73;0.90;;;;;;;9.44;46.84;99262.13;11318929;26;20354;-61
2024/04/17 16:49:18;;;;;;;1.20;0.80;;;;;;;9.25;47.15;99266.91;11316567;26;20005;-61
2024/04/17 16:54:21;;;;;;;1.10;1.00;;;;;;;9.05;47.42;99274.31;11319931;26;19998;-60
2024/04/17 16:59:27;;;;;;;0.80;0.75;;;;;;;9.04;48.00;99278.69;11319769;26;20012;-61
2024/04/17 17:04:30;;;;;;;2.97;0.90;;;;;;;8.90;48.19;99277.88;11285132;26;19998;-61
2024/04/17 17:09:35;;;;;;;1.77;0.90;;;;;;;8.91;48.59;99283.03;11318317;26;20096;-60
2024/04/17 17:14:38;;;;;;;0.77;0.75;;;;;;;8.73;48.16;99295.44;11318903;26;21343;-60
2024/04/17 17:19:44;;;;;;;1.23;1.02;;;;;;;8.67;48.63;99289.75;11318810;26;19998;-60
2024/04/17 17:24:47;;;;;;;2.20;1.10;;;;;;;8.72;49.27;99285.09;11317744;26;20006;-60
2024/04/17 17:29:52;;;;;;;1.75;1.10;;;;;;;8.91;49.64;99287.41;11319047;26;20009;-60
2024/04/17 17:34:57;;;;;;;1.13;1.00;;;;;;;8.97;49.61;99293.06;11316061;26;20021;-60
2024/04/17 17:40:01;;;;;;;1.75;1.10;;;;;;;8.94;50.08;99289.81;11319326;26;20074;-60
2024/04/17 17:45:05;;;;;;;2.25;0.98;;;;;;;9.03;50.34;99294.44;11312859;26;20042;-59
2024/04/17 17:50:09;;;;;;;1.90;1.08;;;;;;;9.03;50.34;99299.66;11317784;26;21046;-59
2024/04/17 17:55:16;;;;;;;1.92;1.40;;;;;;;8.93;50.75;99290.75;11313948;26;20055;-59
2024/04/17 18:00:20;;;;;;;2.15;1.48;;;;;;;8.73;51.26;99285.00;11317595;26;19998;-59
2024/04/17 18:05:22;;;;;;;4.55;1.67;;;;;;;8.62;52.15;99286.63;11317619;26;20553;-59
2024/04/17 18:10:32;;;;;;;2.28;1.10;;;;;;;8.47;52.65;99290.16;11314036;26;20010;-59
2024/04/17 18:15:35;;;;;;;12.57;5.07;;;;;;;8.35;52.90;99299.56;11316169;26;20018;-60
2024/04/17 18:20:39;;;;;;;15.35;5.97;;;;;;;8.17;53.50;99292.00;11314187;26;20017;-59
2024/04/17 18:25:45;;;;;;;7.50;3.20;;;;;;;7.98;54.13;99307.84;11314037;26;19998;-60
2024/04/17 18:30:56;;;;;;;3.90;2.03;;;;;;;7.81;54.87;99306.22;11316599;26;19998;-60
2024/04/17 18:35:59;;;;;;;2.88;1.60;;;;;;;7.72;55.07;99308.53;11315554;26;20006;-59
2024/04/17 18:41:10;;;;;;;2.72;1.38;;;;;;;7.60;55.61;99317.06;11312498;26;20045;-60
2024/04/17 18:46:13;;;;;;;3.88;1.50;;;;;;;7.48;55.46;99331.63;11316903;26;20103;-60
2024/04/17 18:51:22;;;;;;;3.67;1.65;;;;;;;7.41;55.79;99339.84;11312789;26;20006;-59
2024/04/17 18:56:27;;;;;;;3.08;1.85;;;;;;;7.31;56.29;99339.50;11320512;26;20013;-60
2024/04/17 19:01:32;;;;;;;3.08;1.42;;;;;;;7.23;56.34;99353.84;11319893;26;20006;-60
2024/04/17 19:06:35;;;;;;;4.15;1.50;;;;;;;7.18;56.70;99367.97;11321386;26;20011;-60
2024/04/17 19:11:38;;;;;;;2.10;1.38;;;;;;;7.17;56.81;99370.66;11327311;26;20066;-59
2024/04/17 19:16:42;;;;;;;2.15;1.40;;;;;;;7.23;56.89;99374.66;11329826;26;20437;-60
2024/04/17 19:21:45;;;;;;;1.33;1.10;;;;;;;7.29;57.04;99377.78;11328731;26;20021;-60
2024/04/17 19:26:48;;;;;;;3.45;1.20;;;;;;;7.20;56.85;99379.13;11329609;26;20088;-59
2024/04/17 19:31:51;;;;;;;4.32;2.00;;;;;;;7.01;57.12;99380.22;11329190;26;20016;-59
2024/04/17 19:36:57;;;;;;;3.00;1.40;;;;;;;6.93;57.32;99383.22;11323658;26;19998;-60
2024/04/17 19:42:00;;;;;;;1.67;1.23;;;;;;;6.92;57.47;99391.09;11326640;26;20086;-60
2024/04/17 19:47:16;;;;;;;3.40;1.70;;;;;;;6.80;57.82;99394.34;11327680;26;20006;-60
2024/04/17 19:52:18;;;;;;;2.08;1.35;;;;;;;6.66;57.62;99392.47;11324945;26;20006;-60
2024/04/17 19:57:23;;;;;;;1.52;1.20;;;;;;;6.56;57.91;99398.22;11325874;26;19998;-59
2024/04/17 20:02:28;;;;;;;1.83;1.30;;;;;;;6.47;58.26;99398.72;11328314;26;20002;-60
2024/04/17 20:07:31;;;;;;;4.43;2.33;;;;;;;6.41;58.17;99401.63;11326978;26;20034;-60
2024/04/17 20:12:35;;;;;;;2.20;1.50;;;;;;;6.28;58.44;99401.41;11326257;26;20022;-60
2024/04/17 20:17:38;;;;;;;3.70;2.03;;;;;;;6.20;58.41;99416.50;11327837;26;20006;-59
2024/04/17 20:22:41;;;;;;;3.53;1.80;;;;;;;6.07;58.63;99418.84;11326249;26;20002;-60
2024/04/17 20:27:45;;;;;;;2.88;1.60;;;;;;;6.00;58.74;99420.06;11265681;26;20017;-60
2024/04/17 20:32:48;;;;;;;3.08;1.40;;;;;;;6.00;58.82;99427.84;11326186;26;20196;-60
2024/04/17 20:37:51;;;;;;;3.90;1.88;;;;;;;5.94;59.08;99433.34;11324288;26;20010;-60
2024/04/17 20:42:56;;;;;;;2.22;1.42;;;;;;;5.99;58.98;99433.13;11325877;26;20449;-60
2024/04/17 20:48:02;;;;;;;5.35;2.35;;;;;;;6.07;58.94;99433.59;11326892;26;20780;-59
2024/04/17 20:53:04;;;;;;;4.85;2.60;;;;;;;6.04;58.87;99431.97;11324051;26;20068;-60
2024/04/17 20:58:09;;;;;;;3.50;1.48;;;;;;;6.10;58.77;99433.44;11314180;26;19998;-59
2024/04/17 21:03:13;;;;;;;3.28;1.85;;;;;;;6.17;58.95;99432.22;11325009;26;21466;-59
2024/04/17 21:08:17;;;;;;;2.83;1.55;;;;;;;6.19;58.59;99439.03;11326102;26;21009;-59
2024/04/17 21:13:20;;;;;;;5.85;2.47;;;;;;;6.18;58.72;99434.75;11326815;26;20006;-59
2024/04/17 21:18:25;;;;;;;3.05;1.75;;;;;;;6.20;58.98;99438.13;11303721;26;20032;-59
2024/04/17 21:23:31;;;;;;;3.22;1.88;;;;;;;6.28;58.80;99448.16;11324894;26;20010;-59
2024/04/17 21:28:34;;;;;;;3.83;1.90;;;;;;;6.24;58.48;99444.84;11326259;26;20425;-60
2024/04/17 21:33:37;;;;;;;2.83;1.73;;;;;;;6.21;58.64;99451.91;11321327;26;20423;-60
2024/04/17 21:38:40;;;;;;;5.32;1.90;;;;;;;6.12;58.30;99461.00;11326583;26;20021;-60
2024/04/17 21:43:43;;;;;;;5.78;1.95;;;;;;;6.02;58.99;99462.34;11325483;26;20874;-60
2024/04/17 21:48:47;;;;;;;8.75;2.95;;;;;;;6.18;58.84;99463.31;11324882;26;20450;-60
2024/04/17 21:53:50;;;;;;;3.75;1.95;;;;;;;6.43;58.73;99467.31;11320403;26;20449;-59
2024/04/17 21:58:53;;;;;;;2.58;1.70;;;;;;;6.55;58.57;99477.91;11320581;26;20002;-59
2024/04/17 22:03:57;;;;;;;3.00;1.65;;;;;;;6.54;58.65;99481.44;11320520;26;20737;-59
2024/04/17 22:08:59;;;;;;;3.05;1.70;;;;;;;6.66;58.77;99479.97;11324879;26;20055;-59
2024/04/17 22:14:02;;;;;;;3.40;1.80;;;;;;;6.68;58.57;99481.56;11317912;26;19999;-60
2024/04/17 22:19:05;;;;;;;4.32;2.03;;;;;;;6.48;58.55;99492.13;11323582;26;20017;-60
2024/04/17 22:24:08;;;;;;;4.35;1.83;;;;;;;6.29;58.87;99497.41;11321978;26;19998;-59
2024/04/17 22:29:10;;;;;;;3.90;1.88;;;;;;;6.54;59.00;99493.59;11323720;26;19998;-60
2024/04/17 22:34:13;;;;;;;4.53;2.30;;;;;;;6.63;58.48;99495.72;11316800;26;20107;-60
2024/04/17 22:39:15;;;;;;;4.32;2.13;;;;;;;6.74;58.64;99498.59;11324211;26;20025;-59
2024/04/17 22:44:18;;;;;;;3.67;2.20;;;;;;;6.77;58.46;99503.66;11326646;26;20006;-60
2024/04/17 22:49:21;;;;;;;4.95;2.75;;;;;;;6.78;58.43;99498.38;11330997;26;20012;-60
2024/04/17 22:54:23;;;;;;;3.67;2.30;;;;;;;6.75;58.44;99511.53;11330385;26;20014;-60
2024/04/17 22:59:26;;;;;;;3.20;1.80;;;;;;;6.76;58.30;99513.22;11314709;26;20017;-59
2024/04/17 23:04:28;;;;;;;4.28;1.80;;;;;;;6.69;57.80;99513.59;11298589;26;20013;-60
2024/04/17 23:09:31;;;;;;;2.28;1.50;;;;;;;6.73;58.05;99509.94;11329086;26;20016;-60
2024/04/17 23:14:34;;;;;;;3.33;1.88;;;;;;;6.70;57.88;99507.47;11329835;26;20462;-59
2024/04/17 23:19:36;;;;;;;2.33;1.50;;;;;;;6.74;57.79;99516.81;11329943;26;20002;-60
2024/04/17 23:24:39;;;;;;;2.90;1.70;;;;;;;6.72;57.88;99511.69;11317340;26;20626;-60
2024/04/17 23:29:42;;;;;;;2.55;1.75;;;;;;;6.61;57.84;99518.34;11327064;26;20016;-59
2024/04/17 23:34:44;;;;;;;2.40;1.52;;;;;;;6.34;58.02;99526.59;11325868;26;20462;-59
2024/04/17 23:39:47;;;;;;;3.78;1.70;;;;;;;6.28;58.41;99521.69;11329375;26;20518;-60
2024/04/17 23:44:52;;;;;;;1.98;1.38;;;;;;;6.26;58.10;99533.91;11329087;26;20006;-60